Terminal Aerodrome Forecast
Issued by NWS Duluth, MN

Home | Current Version | Previous Version | Text Only | Print | Product List | Glossary On
Versions: 1 2 3 4 5 6 7 8 9 10 11 12 13 14 15 16 17 18 19 20 21 22 23 24 25 26 27 28
248
FTUS43 KDLH 220823 AAB
TAFDLH
TAF AMD
KDLH 220823Z 2208/2306 28009KT 6SM -DZ BR OVC009
     FM221400 28010G17KT 6SM BR VCSH SCT004 OVC008
     FM221700 28010G17KT 6SM BR VCSH OVC015
     FM222100 28010KT P6SM VCSH OVC025
     FM230000 29006KT P6SM BKN025=

USA.gov is the U.S. government's official web portal to all federal, state and local government web resources and services.